aviador You're here:

KCNK Decoded Metar

CONCORDIA in KS, USA
Report Time2017-08-18 17:55:00
UTC Time2017-08-18 18:18:49
Flight Rules vfr VFR
Wind280° at 09 kt
W.Decomp.*RWY 30: 8.1 kt HW 3.9 kt LCW
RWY 21: 3.9 kt HW 8.1 kt RCW
RWY 35: 2.2 kt HW 8.7 kt LCW
W.Rank280° ranks 19
Current wind is above 280° avg. (8.2)
Visibility9999 m
Phenomena:N/A
Clouds:N/A
Expected CloudBase > 4,400 ft AGL from Temp-Dew spread
CeilingNone
Temp29°C (ISA +17)
Dew Point18°C (51% RH)
Heat Index29.8°C
AAT28.5°C
QNH1015 hPa
Density Alt3,615 ft
Elevation1,467 ft
Report Wrong Elevation
Raw Report
KCNK 181755Z AUTO 28009KT 10SM CLR 29/18 A2996 RMK AO2 SLP128
T02890178 10289 20172 58008=

Extra information for KCNK:More info

Metar Taf Metar & Taf Last 4 Metars F.Rules Stats Wind Profile Meteogram Temp Stats Airport Information Weather charts Add Link Nearby VenuesMetar ALERT Operation Metar Decoded Social comments

AIRNAV info for KCNK